Time;durP1;ratioP1;P1;durP2;ratioP2;P2;SDS_P1;SDS_P2;PMS_P1;PMS_P2;Temp;Humidity;BMP_temperature;BMP_pressure;BME280_temperature;BME280_humidity;BME280_pressure;Samples;Min_cycle;Max_cycle;Signal;HPM_P1;HPM_P2
2022/07/24 00:01:17;;;;;;;5.82;3.50;;;11.80;99.90;;;;;;5125720;27;20034;-53
2022/07/24 00:03:44;;;;;;;6.65;4.15;;;11.80;99.90;;;;;;5115360;27;20027;-56
2022/07/24 00:06:12;;;;;;;8.85;4.53;;;12.00;99.90;;;;;;5115315;27;20034;-54
2022/07/24 00:08:40;;;;;;;7.85;5.50;;;12.10;99.90;;;;;;5096817;28;20020;-55
2022/07/24 00:11:08;;;;;;;7.50;5.18;;;12.20;99.90;;;;;;5127574;27;20023;-53
2022/07/24 00:13:35;;;;;;;6.43;4.35;;;12.30;99.90;;;;;;5114079;27;20043;-56
2022/07/24 00:16:02;;;;;;;8.27;4.50;;;12.30;99.90;;;;;;5132277;27;20043;-55
2022/07/24 00:18:29;;;;;;;9.90;4.60;;;12.40;99.90;;;;;;5127599;27;20028;-57
2022/07/24 00:20:57;;;;;;;8.68;4.25;;;12.50;99.90;;;;;;5098067;27;20036;-56
2022/07/24 00:23:25;;;;;;;6.00;3.30;;;12.70;99.90;;;;;;5107636;28;20545;-57
2022/07/24 00:25:53;;;;;;;5.25;2.58;;;12.80;99.90;;;;;;5114149;27;20467;-56
2022/07/24 00:28:21;;;;;;;4.93;2.33;;;12.90;99.40;;;;;;5106867;27;20456;-54
2022/07/24 00:30:48;;;;;;;5.40;2.17;;;12.90;99.90;;;;;;5118300;27;20024;-54
2022/07/24 00:33:16;;;;;;;4.57;2.08;;;13.00;99.90;;;;;;5111943;28;20082;-56
2022/07/24 00:35:44;;;;;;;4.22;2.75;;;13.10;99.90;;;;;;5126270;27;20023;-56
2022/07/24 00:38:11;;;;;;;4.47;2.50;;;13.20;99.90;;;;;;5132242;27;20499;-57
2022/07/24 00:40:39;;;;;;;3.58;1.83;;;13.30;98.80;;;;;;5112742;27;20459;-58
2022/07/24 00:43:06;;;;;;;5.00;2.50;;;13.40;98.80;;;;;;5111509;28;20472;-57
2022/07/24 00:45:33;;;;;;;5.97;2.45;;;13.50;98.20;;;;;;5123658;27;20068;-56
2022/07/24 00:48:00;;;;;;;4.45;2.80;;;13.60;98.80;;;;;;5113477;27;20076;-57
2022/07/24 00:50:28;;;;;;;3.72;2.65;;;13.60;98.50;;;;;;5123076;27;20404;-56
2022/07/24 00:52:56;;;;;;;4.57;2.83;;;13.70;99.00;;;;;;5111369;27;20052;-55
2022/07/24 00:55:24;;;;;;;3.15;1.90;;;13.90;99.00;;;;;;5111040;28;20026;-62
2022/07/24 00:57:51;;;;;;;3.40;1.52;;;14.00;97.20;;;;;;5099319;28;20509;-61
2022/07/24 01:00:22;;;;;;;2.08;1.42;;;14.10;97.60;;;;;;5091395;28;20373;-60
2022/07/24 01:02:51;;;;;;;3.90;1.80;;;14.10;97.10;;;;;;5122304;27;20107;-61
2022/07/24 01:05:19;;;;;;;4.45;1.90;;;14.20;95.70;;;;;;5129161;27;20179;-61
2022/07/24 01:07:47;;;;;;;2.50;1.52;;;14.10;96.40;;;;;;5111688;27;20041;-61
2022/07/24 01:10:14;;;;;;;2.35;1.13;;;14.20;96.40;;;;;;5128633;27;20186;-61
2022/07/24 01:12:42;;;;;;;3.55;1.20;;;14.30;96.40;;;;;;5127956;27;20092;-61
2022/07/24 01:15:11;;;;;;;2.90;1.10;;;14.30;95.80;;;;;;5096773;28;20027;-63
2022/07/24 01:17:41;;;;;;;1.90;1.17;;;14.30;95.00;;;;;;5109280;28;20118;-61
2022/07/24 01:20:10;;;;;;;3.58;1.10;;;14.40;96.10;;;;;;5109407;28;20152;-61
2022/07/24 01:22:37;;;;;;;2.80;1.52;;;14.50;95.70;;;;;;5089869;28;20108;-61
2022/07/24 01:25:05;;;;;;;1.75;0.90;;;14.50;95.60;;;;;;5109011;28;20019;-61
2022/07/24 01:27:32;;;;;;;2.55;1.10;;;14.50;94.40;;;;;;5090758;28;20349;-61
2022/07/24 01:30:00;;;;;;;0.95;0.60;;;14.60;96.20;;;;;;5109036;28;20495;-61
2022/07/24 01:32:27;;;;;;;2.20;1.00;;;14.70;95.00;;;;;;5092246;28;20440;-62
2022/07/24 01:34:54;;;;;;;2.42;1.10;;;14.80;94.70;;;;;;5091344;28;20024;-62
2022/07/24 01:37:22;;;;;;;2.13;0.90;;;15.00;95.30;;;;;;5109060;28;20039;-65
2022/07/24 01:39:49;;;;;;;2.63;1.00;;;15.10;95.90;;;;;;5098167;27;20041;-63
2022/07/24 01:42:16;;;;;;;1.70;0.65;;;15.20;96.00;;;;;;5118311;27;20022;-63
2022/07/24 01:44:43;;;;;;;3.55;0.80;;;15.30;94.80;;;;;;5128668;27;20027;-64
2022/07/24 01:47:11;;;;;;;2.67;0.82;;;15.40;93.80;;;;;;5120831;27;20128;-62
2022/07/24 01:49:38;;;;;;;4.10;1.40;;;15.60;94.70;;;;;;5149193;27;20018;-64
2022/07/24 01:52:05;;;;;;;1.85;0.73;;;15.70;94.20;;;;;;5113573;27;20413;-64
2022/07/24 01:54:33;;;;;;;3.28;0.70;;;15.80;93.30;;;;;;5128744;27;20325;-64
2022/07/24 01:57:00;;;;;;;2.20;1.23;;;15.90;93.00;;;;;;5118616;27;20035;-64
2022/07/24 01:59:27;;;;;;;2.15;0.60;;;15.90;92.70;;;;;;5115842;27;20157;-67
2022/07/24 02:01:55;;;;;;;6.13;1.85;;;16.00;94.60;;;;;;5118418;27;20069;-62
2022/07/24 02:04:22;;;;;;;1.85;0.75;;;16.10;94.20;;;;;;5098335;27;20023;-64
2022/07/24 02:06:49;;;;;;;3.45;1.65;;;16.10;92.40;;;;;;5115438;27;20023;-63
2022/07/24 02:09:16;;;;;;;2.63;0.57;;;16.10;92.10;;;;;;5120622;27;20094;-63
2022/07/24 02:11:44;;;;;;;1.48;0.60;;;16.10;91.60;;;;;;5116685;27;20018;-63
2022/07/24 02:14:11;;;;;;;2.00;0.35;;;16.20;91.70;;;;;;5141946;27;20019;-62
2022/07/24 02:16:38;;;;;;;2.83;0.77;;;16.30;90.80;;;;;;5127904;27;20047;-58
2022/07/24 02:19:05;;;;;;;3.28;0.50;;;16.30;87.30;;;;;;5143680;27;20405;-56
2022/07/24 02:21:33;;;;;;;1.90;0.50;;;16.30;88.00;;;;;;5131871;27;20019;-52
2022/07/24 02:24:00;;;;;;;0.75;0.40;;;16.30;88.20;;;;;;5124676;28;20519;-59
2022/07/24 02:26:28;;;;;;;1.90;0.40;;;16.30;90.50;;;;;;5138117;27;20154;-60
2022/07/24 02:28:56;;;;;;;1.67;0.40;;;16.30;90.10;;;;;;5134727;27;20027;-58
2022/07/24 02:31:23;;;;;;;4.25;0.40;;;16.40;88.80;;;;;;5133702;27;20121;-60
2022/07/24 02:33:50;;;;;;;0.90;0.30;;;16.30;89.10;;;;;;5129668;27;20051;-60
2022/07/24 02:36:18;;;;;;;1.77;0.35;;;16.20;88.10;;;;;;5138062;27;20057;-60
2022/07/24 02:38:45;;;;;;;3.28;0.40;;;16.10;89.30;;;;;;5133463;27;20023;-60
2022/07/24 02:41:12;;;;;;;6.45;0.57;;;16.00;90.10;;;;;;5113099;27;20139;-59
2022/07/24 02:43:39;;;;;;;3.30;0.45;;;15.90;90.70;;;;;;5135057;27;20028;-59
2022/07/24 02:46:07;;;;;;;0.63;0.25;;;15.90;91.00;;;;;;5145650;27;20053;-60
2022/07/24 02:48:34;;;;;;;1.52;0.38;;;16.00;91.10;;;;;;5119146;27;20079;-59
2022/07/24 02:51:01;;;;;;;1.63;0.50;;;16.10;92.40;;;;;;5144359;27;20490;-59
2022/07/24 02:53:28;;;;;;;0.40;0.30;;;16.10;90.50;;;;;;5123557;27;20027;-59
2022/07/24 02:55:56;;;;;;;0.32;0.20;;;16.10;90.20;;;;;;5149382;27;20116;-51
2022/07/24 02:58:23;;;;;;;0.50;0.30;;;16.20;90.10;;;;;;5128382;27;20019;-57
2022/07/24 03:00:50;;;;;;;1.38;0.50;;;16.40;90.10;;;;;;5147181;27;20653;-55
2022/07/24 03:03:17;;;;;;;1.02;0.50;;;16.60;87.90;;;;;;5127900;27;20032;-53
2022/07/24 03:05:44;;;;;;;0.73;0.32;;;16.80;88.90;;;;;;5133128;27;20026;-53
2022/07/24 03:08:12;;;;;;;0.65;0.30;;;16.90;86.00;;;;;;5146920;27;20019;-49
2022/07/24 03:10:39;;;;;;;0.98;0.35;;;17.00;83.70;;;;;;5126402;27;20022;-54
2022/07/24 03:13:06;;;;;;;1.67;0.50;;;17.10;84.50;;;;;;5112737;27;20076;-53
2022/07/24 03:15:34;;;;;;;1.23;0.40;;;17.20;84.30;;;;;;5141689;27;20114;-56
2022/07/24 03:18:01;;;;;;;2.33;0.45;;;17.30;85.40;;;;;;5148278;27;20083;-54
2022/07/24 03:20:29;;;;;;;0.85;0.22;;;17.50;81.60;;;;;;5142362;27;20025;-54
2022/07/24 03:22:57;;;;;;;2.47;0.40;;;17.60;81.70;;;;;;5140041;27;20035;-54
2022/07/24 03:25:24;;;;;;;0.93;0.30;;;17.70;82.50;;;;;;5150119;27;20023;-48
2022/07/24 03:27:52;;;;;;;0.93;0.40;;;17.70;81.10;;;;;;5132579;27;20490;-56
2022/07/24 03:30:20;;;;;;;2.35;0.52;;;17.80;79.80;;;;;;5145782;27;20027;-51
2022/07/24 03:32:47;;;;;;;2.60;0.35;;;17.80;78.00;;;;;;5145998;27;20561;-53
2022/07/24 03:35:15;;;;;;;1.20;0.50;;;17.80;77.70;;;;;;5137357;27;20019;-52
2022/07/24 03:37:42;;;;;;;3.65;1.08;;;17.80;81.20;;;;;;5149991;27;20031;-48
2022/07/24 03:40:10;;;;;;;1.52;0.40;;;17.70;77.30;;;;;;5140192;27;20025;-53
2022/07/24 03:42:37;;;;;;;2.22;0.95;;;17.60;80.50;;;;;;5141834;27;20030;-52
2022/07/24 03:45:05;;;;;;;1.40;0.30;;;17.50;80.50;;;;;;5128586;27;20047;-51
2022/07/24 03:47:32;;;;;;;4.00;0.60;;;17.30;79.30;;;;;;5105402;27;20027;-53
2022/07/24 03:50:00;;;;;;;3.05;0.40;;;17.10;79.60;;;;;;5123915;27;20468;-52
2022/07/24 03:52:27;;;;;;;1.05;0.50;;;16.90;80.10;;;;;;5128053;27;20032;-54
2022/07/24 03:54:55;;;;;;;2.28;0.82;;;16.80;80.80;;;;;;5123354;27;20018;-50
2022/07/24 03:57:22;;;;;;;1.38;0.40;;;16.80;80.60;;;;;;5136058;27;20039;-55
2022/07/24 03:59:49;;;;;;;1.60;0.60;;;16.90;79.20;;;;;;5149424;27;20019;-52
2022/07/24 04:02:17;;;;;;;2.28;0.50;;;17.00;79.30;;;;;;5141085;27;20030;-54
2022/07/24 04:04:44;;;;;;;2.30;0.60;;;17.10;77.80;;;;;;5131231;27;20475;-55
2022/07/24 04:07:11;;;;;;;3.75;0.50;;;17.10;76.60;;;;;;5148225;27;20105;-51
2022/07/24 04:09:38;;;;;;;1.85;0.50;;;17.20;74.60;;;;;;5135885;27;20026;-54
2022/07/24 04:12:06;;;;;;;1.00;0.40;;;17.20;75.60;;;;;;5146615;27;20077;-51
2022/07/24 04:14:33;;;;;;;0.65;0.30;;;17.30;75.50;;;;;;5134591;27;20023;-55
2022/07/24 04:17:00;;;;;;;1.60;0.60;;;17.30;75.60;;;;;;5117837;27;20445;-55
2022/07/24 04:19:28;;;;;;;2.55;0.85;;;17.40;75.30;;;;;;5111498;28;20089;-53
2022/07/24 04:21:55;;;;;;;1.05;0.95;;;17.40;75.40;;;;;;5094916;27;20076;-56
2022/07/24 04:24:22;;;;;;;1.00;0.57;;;17.50;75.70;;;;;;5123934;27;20072;-56
2022/07/24 04:26:50;;;;;;;2.65;1.20;;;17.50;73.80;;;;;;5093393;28;20037;-56
2022/07/24 04:29:17;;;;;;;4.18;1.58;;;17.50;74.10;;;;;;5132076;27;20030;-54
2022/07/24 04:31:45;;;;;;;7.47;1.92;;;17.50;73.50;;;;;;5124523;27;20031;-53
2022/07/24 04:34:12;;;;;;;2.90;1.15;;;17.60;75.50;;;;;;5112642;27;20015;-55
2022/07/24 04:36:39;;;;;;;3.42;1.35;;;17.60;74.00;;;;;;5091665;28;20495;-54
2022/07/24 04:39:06;;;;;;;3.35;1.13;;;17.60;74.50;;;;;;5091276;28;20031;-55
2022/07/24 04:41:34;;;;;;;1.83;0.70;;;17.60;71.60;;;;;;5109753;28;20020;-55
2022/07/24 04:44:01;;;;;;;3.47;1.55;;;17.60;71.80;;;;;;5109460;28;20027;-55
2022/07/24 04:46:28;;;;;;;3.55;0.90;;;17.60;73.90;;;;;;5091661;28;20100;-53
2022/07/24 04:48:55;;;;;;;1.83;0.75;;;17.50;72.90;;;;;;5091476;28;20053;-54
2022/07/24 04:51:22;;;;;;;5.93;0.88;;;17.50;72.30;;;;;;5110684;28;20097;-53
2022/07/24 04:53:52;;;;;;;4.45;1.30;;;17.50;71.80;;;;;;5111824;28;20043;-56
2022/07/24 04:56:23;;;;;;;8.40;2.05;;;17.40;73.10;;;;;;5092305;28;20032;-53
2022/07/24 04:58:50;;;;;;;6.03;1.67;;;17.40;74.20;;;;;;5111720;28;20024;-55
2022/07/24 05:01:18;;;;;;;7.25;1.38;;;17.30;74.50;;;;;;5111473;28;20400;-54
2022/07/24 05:03:45;;;;;;;3.95;1.48;;;17.30;75.20;;;;;;5111198;28;20020;-55
2022/07/24 05:06:12;;;;;;;4.38;1.20;;;17.30;74.70;;;;;;5092696;28;20031;-55
2022/07/24 05:08:39;;;;;;;3.47;1.13;;;17.30;76.80;;;;;;5111298;28;20030;-55
2022/07/24 05:11:07;;;;;;;3.38;1.30;;;17.30;75.90;;;;;;5110995;28;20032;-51
2022/07/24 05:13:34;;;;;;;4.30;1.95;;;17.30;76.40;;;;;;5110856;28;20022;-53
2022/07/24 05:16:01;;;;;;;3.05;1.77;;;17.30;75.10;;;;;;5110705;28;20047;-56
2022/07/24 05:18:28;;;;;;;3.67;1.10;;;17.20;75.00;;;;;;5092538;28;20028;-55
2022/07/24 05:20:56;;;;;;;2.60;1.00;;;17.20;75.10;;;;;;5111020;28;20020;-56
2022/07/24 05:23:23;;;;;;;3.25;1.05;;;17.20;75.20;;;;;;5111055;28;20099;-60
2022/07/24 05:25:50;;;;;;;7.07;1.20;;;17.10;75.90;;;;;;5111261;28;20043;-54
2022/07/24 05:28:17;;;;;;;7.80;1.20;;;17.00;75.50;;;;;;5092282;28;20474;-61
2022/07/24 05:30:45;;;;;;;2.85;0.80;;;16.90;75.80;;;;;;5110719;28;20115;-55
2022/07/24 05:33:12;;;;;;;4.45;1.10;;;16.90;76.60;;;;;;5110518;28;20012;-53
2022/07/24 05:35:39;;;;;;;1.23;0.70;;;16.80;73.90;;;;;;5110629;28;20030;-56
2022/07/24 05:38:06;;;;;;;3.00;1.15;;;16.80;74.70;;;;;;5110555;28;20032;-55
2022/07/24 05:40:34;;;;;;;3.08;0.98;;;16.70;75.90;;;;;;5110334;28;20020;-54
2022/07/24 05:43:01;;;;;;;1.75;0.93;;;16.60;76.60;;;;;;5110485;28;20042;-55
2022/07/24 05:45:28;;;;;;;3.08;0.85;;;16.60;76.50;;;;;;5091999;28;20042;-55
2022/07/24 05:47:55;;;;;;;3.40;0.70;;;16.50;76.80;;;;;;5110406;28;20066;-53
2022/07/24 05:50:23;;;;;;;4.25;1.20;;;16.40;77.20;;;;;;5112504;27;20053;-54
2022/07/24 05:52:50;;;;;;;2.05;0.88;;;16.40;77.00;;;;;;5127127;27;20054;-53
2022/07/24 05:55:17;;;;;;;2.22;0.80;;;16.40;75.90;;;;;;5130868;27;20019;-55
2022/07/24 05:57:47;;;;;;;3.63;1.10;;;16.30;76.30;;;;;;5130662;27;20031;-54
2022/07/24 06:00:18;;;;;;;4.65;1.60;;;16.30;76.80;;;;;;5130711;27;20023;-52
2022/07/24 06:02:48;;;;;;;3.13;0.95;;;16.20;77.00;;;;;;5129186;27;20020;-53
2022/07/24 06:05:16;;;;;;;2.40;0.70;;;16.10;76.80;;;;;;5110091;28;20101;-51
2022/07/24 06:07:44;;;;;;;2.85;0.90;;;16.10;76.30;;;;;;5109787;28;20027;-54
2022/07/24 06:10:12;;;;;;;3.63;1.00;;;16.00;77.00;;;;;;5110525;28;20034;-52
2022/07/24 06:12:39;;;;;;;2.47;0.77;;;15.80;76.40;;;;;;5091872;28;20047;-56
2022/07/24 06:15:07;;;;;;;1.90;0.68;;;15.70;76.20;;;;;;5110010;28;20019;-53
2022/07/24 06:17:38;;;;;;;2.40;0.50;;;15.60;76.90;;;;;;5129075;27;20050;-54
2022/07/24 06:20:07;;;;;;;3.45;0.63;;;15.50;77.50;;;;;;5130490;27;20544;-53
2022/07/24 06:22:35;;;;;;;1.80;0.80;;;15.50;78.00;;;;;;5130451;28;20059;-55
2022/07/24 06:25:02;;;;;;;1.30;0.65;;;15.40;77.90;;;;;;5129310;28;20015;-51
2022/07/24 06:27:29;;;;;;;2.30;0.75;;;15.30;78.00;;;;;;5123069;28;20027;-53
2022/07/24 06:29:56;;;;;;;3.30;0.95;;;15.30;78.60;;;;;;5126926;28;20019;-52
2022/07/24 06:32:24;;;;;;;1.13;0.60;;;15.20;78.30;;;;;;5130838;28;20105;-53
2022/07/24 06:34:51;;;;;;;1.77;0.50;;;15.10;78.60;;;;;;5112272;28;20019;-54
2022/07/24 06:37:19;;;;;;;2.58;0.70;;;15.00;79.20;;;;;;5130313;28;20039;-55
2022/07/24 06:39:46;;;;;;;2.58;1.35;;;14.90;79.60;;;;;;5130305;28;20018;-55
2022/07/24 06:42:13;;;;;;;2.50;1.00;;;14.80;80.10;;;;;;5118604;28;20024;-51
2022/07/24 06:44:40;;;;;;;2.65;1.00;;;14.70;80.50;;;;;;5116510;28;20029;-56
2022/07/24 06:47:07;;;;;;;1.63;0.80;;;14.60;80.50;;;;;;5113515;28;20031;-56
2022/07/24 06:49:35;;;;;;;2.63;0.93;;;14.50;81.50;;;;;;5108313;28;20098;-53
2022/07/24 06:52:02;;;;;;;3.88;1.30;;;14.40;82.70;;;;;;5119424;28;20033;-51
2022/07/24 06:54:29;;;;;;;3.05;1.30;;;14.20;83.50;;;;;;5088933;28;20413;-50
2022/07/24 06:56:56;;;;;;;4.57;1.00;;;14.10;84.30;;;;;;5106986;28;20027;-50
2022/07/24 06:59:24;;;;;;;2.78;1.05;;;14.00;85.00;;;;;;5095177;28;20080;-49
2022/07/24 07:01:51;;;;;;;3.10;1.20;;;13.80;85.40;;;;;;5110300;28;20023;-50
2022/07/24 07:04:18;;;;;;;3.13;1.05;;;13.70;86.50;;;;;;5107069;28;20096;-50
2022/07/24 07:06:46;;;;;;;2.88;2.10;;;13.60;86.90;;;;;;5117415;28;20012;-53
2022/07/24 07:09:13;;;;;;;5.00;1.20;;;13.50;87.80;;;;;;5114986;28;20039;-53
2022/07/24 07:11:40;;;;;;;4.63;1.27;;;13.40;88.50;;;;;;5127651;28;20027;-53
2022/07/24 07:14:08;;;;;;;3.80;0.98;;;13.20;89.50;;;;;;5116668;28;20015;-55
2022/07/24 07:16:35;;;;;;;2.88;1.20;;;13.00;90.50;;;;;;5127227;28;20063;-55
2022/07/24 07:19:02;;;;;;;3.45;1.13;;;12.90;90.50;;;;;;5127805;27;20055;-54
2022/07/24 07:21:30;;;;;;;2.70;1.15;;;12.80;90.90;;;;;;5112416;27;20454;-53
2022/07/24 07:23:57;;;;;;;2.85;1.20;;;12.70;91.10;;;;;;5124438;27;20016;-52
2022/07/24 07:26:24;;;;;;;3.53;1.52;;;12.50;91.40;;;;;;5118352;27;20050;-52
2022/07/24 07:28:52;;;;;;;2.33;1.20;;;12.40;91.50;;;;;;5118757;27;20035;-52
2022/07/24 07:31:19;;;;;;;3.45;2.08;;;12.30;92.20;;;;;;5112245;27;20475;-48
2022/07/24 07:33:46;;;;;;;5.43;2.38;;;12.20;92.60;;;;;;5112216;27;20039;-51
2022/07/24 07:36:13;;;;;;;7.53;2.88;;;12.00;93.20;;;;;;5130929;27;20042;-51
2022/07/24 07:38:41;;;;;;;7.00;2.53;;;12.00;93.50;;;;;;5123832;27;20118;-48
2022/07/24 07:41:08;;;;;;;7.28;2.85;;;11.90;93.50;;;;;;5130133;27;20023;-52
2022/07/24 07:43:35;;;;;;;8.85;2.67;;;11.90;93.60;;;;;;5111889;27;20498;-49
2022/07/24 07:46:02;;;;;;;4.03;2.38;;;11.80;93.80;;;;;;5129136;27;20023;-48
2022/07/24 07:48:30;;;;;;;5.82;2.47;;;11.70;93.80;;;;;;5130407;27;20035;-50
2022/07/24 07:50:58;;;;;;;3.70;2.30;;;11.60;94.00;;;;;;5127545;27;20037;-48
2022/07/24 07:53:25;;;;;;;3.92;2.30;;;11.50;93.90;;;;;;5130641;27;20091;-63
2022/07/24 07:55:53;;;;;;;5.10;2.70;;;11.40;94.00;;;;;;5126042;27;20023;-55
2022/07/24 07:58:22;;;;;;;4.70;2.38;;;11.30;94.30;;;;;;5103887;27;20046;-51
2022/07/24 08:00:49;;;;;;;6.78;2.40;;;11.30;94.60;;;;;;5114966;27;20019;-53
2022/07/24 08:03:17;;;;;;;7.28;2.70;;;11.20;94.90;;;;;;5124344;27;20038;-49
2022/07/24 08:05:44;;;;;;;7.72;2.70;;;11.10;95.10;;;;;;5119310;27;20023;-51
2022/07/24 08:08:11;;;;;;;5.65;2.88;;;11.10;95.80;;;;;;5113071;27;20091;-50
2022/07/24 08:10:39;;;;;;;9.15;3.67;;;11.20;95.90;;;;;;5116679;27;20037;-55
2022/07/24 08:13:06;;;;;;;8.38;3.80;;;11.20;96.00;;;;;;5091851;28;20388;-54
2022/07/24 08:15:34;;;;;;;10.93;6.05;;;11.20;96.60;;;;;;5090786;28;20052;-54
2022/07/24 08:18:01;;;;;;;12.98;8.68;;;11.20;97.00;;;;;;5116330;27;20475;-52
2022/07/24 08:20:29;;;;;;;9.32;3.00;;;11.30;97.20;;;;;;5115252;27;20039;-50
2022/07/24 08:22:56;;;;;;;6.00;2.85;;;11.50;97.20;;;;;;5124243;27;20023;-53
2022/07/24 08:25:23;;;;;;;10.38;2.50;;;11.50;96.40;;;;;;5122560;27;20027;-53
2022/07/24 08:27:50;;;;;;;7.10;3.33;;;11.40;96.00;;;;;;5122551;27;20654;-53
2022/07/24 08:30:18;;;;;;;3.90;3.47;;;11.40;97.60;;;;;;5116993;27;20023;-53
2022/07/24 08:32:45;;;;;;;6.28;3.20;;;11.30;96.30;;;;;;5127870;27;20023;-54
2022/07/24 08:35:15;;;;;;;5.43;1.70;;;11.30;96.70;;;;;;5097473;27;20051;-49
2022/07/24 08:37:42;;;;;;;5.13;2.35;;;11.20;96.90;;;;;;5088970;28;20078;-51
2022/07/24 08:40:11;;;;;;;7.85;1.90;;;11.10;97.30;;;;;;5100202;27;20098;-52
2022/07/24 08:42:38;;;;;;;5.78;3.72;;;11.10;97.50;;;;;;5129659;27;20037;-53
2022/07/24 08:45:07;;;;;;;4.78;1.90;;;11.00;97.70;;;;;;5115853;27;20437;-54
2022/07/24 08:47:36;;;;;;;7.32;2.17;;;11.00;98.00;;;;;;5120856;27;20555;-49
2022/07/24 08:50:04;;;;;;;5.57;2.33;;;10.90;97.70;;;;;;5090182;28;20027;-51
2022/07/24 08:52:35;;;;;;;5.63;2.47;;;10.80;98.10;;;;;;5118447;27;20031;-48
2022/07/24 08:55:02;;;;;;;7.13;3.05;;;10.80;98.00;;;;;;5128630;27;20470;-53
2022/07/24 08:57:30;;;;;;;6.57;3.53;;;10.70;98.30;;;;;;5126630;27;20042;-55
2022/07/24 08:59:57;;;;;;;5.47;2.83;;;10.80;99.60;;;;;;5129568;27;20420;-54
2022/07/24 09:02:24;;;;;;;7.78;3.40;;;10.90;99.90;;;;;;5100596;27;20069;-52
2022/07/24 09:04:59;;;;;;;7.32;3.03;;;11.30;99.90;;;;;;5111573;27;20023;-56
2022/07/24 09:07:29;;;;;;;10.05;2.75;;;11.60;99.90;;;;;;5128370;27;20033;-64
2022/07/24 09:10:06;;;;;;;4.28;2.40;;;11.70;99.90;;;;;;5113561;27;20035;-52
2022/07/24 09:12:38;;;;;;;4.60;2.92;;;11.70;99.90;;;;;;5108178;28;20024;-55
2022/07/24 09:15:46;;;;;;;6.43;3.40;;;11.90;99.90;;;;;;5113925;27;20158;-53
2022/07/24 09:18:27;;;;;;;6.65;2.83;;;12.10;99.90;;;;;;5099481;27;20047;-55
2022/07/24 09:20:56;;;;;;;10.38;2.50;;;12.20;99.40;;;;;;5112279;27;20413;-52
2022/07/24 09:23:23;;;;;;;10.23;3.40;;;12.10;98.90;;;;;;5096343;28;20039;-53
2022/07/24 09:25:54;;;;;;;5.97;2.80;;;12.00;99.00;;;;;;5108167;28;20028;-50
2022/07/24 09:28:25;;;;;;;6.57;2.70;;;11.90;99.70;;;;;;5114379;27;20443;-56
2022/07/24 09:30:52;;;;;;;7.28;3.13;;;11.90;99.90;;;;;;5104878;28;20115;-53
2022/07/24 09:33:21;;;;;;;12.00;2.92;;;11.90;99.90;;;;;;5119580;27;20036;-54
2022/07/24 09:35:53;;;;;;;61.45;37.22;;;11.90;99.90;;;;;;5100143;28;20039;-55
2022/07/24 09:38:24;;;;;;;43.00;23.80;;;12.00;99.90;;;;;;5105765;28;20097;-53
2022/07/24 09:40:54;;;;;;;33.38;16.98;;;11.90;99.90;;;;;;5119558;27;20019;-55
2022/07/24 09:43:23;;;;;;;21.35;11.73;;;11.90;99.90;;;;;;5113697;27;20114;-52
2022/07/24 09:46:11;;;;;;;106.25;56.00;;;11.80;99.90;;;;;;5112104;27;20479;-55
2022/07/24 09:48:57;;;;;;;74.15;40.00;;;11.80;99.90;;;;;;5112969;27;20024;-54
2022/07/24 09:51:25;;;;;;;26.50;14.13;;;11.70;99.90;;;;;;5108211;28;20023;-57
2022/07/24 09:53:58;;;;;;;24.60;11.88;;;11.60;99.90;;;;;;5113731;27;20026;-55
2022/07/24 09:56:26;;;;;;;18.95;10.70;;;11.30;99.80;;;;;;5101430;27;20638;-54
2022/07/24 09:58:55;;;;;;;17.52;10.60;;;11.30;99.90;;;;;;5117154;27;20200;-54
2022/07/24 10:01:26;;;;;;;16.33;8.38;;;11.30;99.90;;;;;;5117081;27;20023;-56
2022/07/24 10:04:00;;;;;;;11.27;4.28;;;11.20;99.90;;;;;;5113879;27;20076;-55
2022/07/24 10:06:28;;;;;;;7.93;3.92;;;11.00;99.90;;;;;;5091029;28;20042;-57
2022/07/24 10:08:56;;;;;;;10.32;5.43;;;10.90;99.90;;;;;;5119184;27;20405;-55
2022/07/24 10:11:24;;;;;;;14.48;4.15;;;10.90;99.90;;;;;;5089766;28;20069;-51
2022/07/24 10:13:52;;;;;;;7.63;3.92;;;10.70;99.90;;;;;;5110381;27;20384;-53
2022/07/24 10:16:30;;;;;;;8.70;4.25;;;10.60;99.90;;;;;;5107092;28;20043;-55
2022/07/24 10:19:04;;;;;;;5.18;3.47;;;10.50;99.90;;;;;;5126967;27;20075;-56
2022/07/24 10:21:36;;;;;;;8.38;3.42;;;10.40;99.90;;;;;;5109014;28;20024;-54
2022/07/24 10:24:12;;;;;;;8.65;3.30;;;10.30;99.90;;;;;;5109145;28;20023;-59
2022/07/24 10:26:40;;;;;;;8.48;3.63;;;10.10;99.90;;;;;;5115915;28;20058;-57
2022/07/24 10:29:10;;;;;;;7.30;3.65;;;10.10;99.90;;;;;;5103257;28;20457;-54
2022/07/24 10:31:42;;;;;;;17.90;7.82;;;10.00;99.90;;;;;;5126021;28;20030;-53
2022/07/24 10:34:18;;;;;;;14.10;7.65;;;9.80;99.90;;;;;;5125249;28;20051;-54
2022/07/24 10:37:23;;;;;;;12.15;5.70;;;9.70;99.90;;;;;;5088905;28;20507;-52
2022/07/24 10:40:02;;;;;;;16.60;6.05;;;9.70;99.90;;;;;;5089288;28;20062;-51
2022/07/24 10:42:30;;;;;;;11.48;6.25;;;9.60;99.90;;;;;;5107313;28;20047;-52
2022/07/24 10:45:17;;;;;;;17.88;7.43;;;9.60;99.90;;;;;;5107287;28;20082;-53
2022/07/24 10:47:45;;;;;;;15.55;7.10;;;9.60;99.90;;;;;;5114599;28;20027;-56
2022/07/24 10:50:16;;;;;;;14.15;6.97;;;9.50;99.90;;;;;;5123315;28;20028;-52
2022/07/24 10:52:43;;;;;;;12.63;6.80;;;9.50;99.90;;;;;;5127640;28;20027;-52
2022/07/24 10:55:25;;;;;;;14.85;7.22;;;9.40;99.90;;;;;;5131613;27;20475;-53
2022/07/24 10:58:14;;;;;;;21.30;10.70;;;9.40;99.90;;;;;;5122649;27;20483;-55
2022/07/24 11:00:45;;;;;;;12.73;8.23;;;9.50;99.90;;;;;;5092778;28;20709;-53
2022/07/24 11:03:25;;;;;;;16.15;7.85;;;9.60;99.90;;;;;;5126119;27;20055;-52
2022/07/24 11:06:12;;;;;;;12.25;7.22;;;9.50;99.90;;;;;;5113478;27;20179;-55
2022/07/24 11:08:40;;;;;;;16.52;8.60;;;9.40;99.90;;;;;;5115168;27;20496;-52
2022/07/24 11:11:17;;;;;;;15.70;8.32;;;9.30;99.90;;;;;;5129008;27;20502;-52
2022/07/24 11:13:48;;;;;;;20.70;8.73;;;9.20;99.90;;;;;;5105999;27;20027;-53
2022/07/24 11:16:21;;;;;;;15.60;8.52;;;9.20;99.90;;;;;;5127527;27;20039;-51
2022/07/24 11:18:48;;;;;;;15.52;8.75;;;9.20;99.90;;;;;;5105416;28;20076;-53
2022/07/24 11:21:46;;;;;;;22.95;8.35;;;9.30;99.90;;;;;;5110804;28;20019;-52
2022/07/24 11:24:17;;;;;;;18.13;9.27;;;9.20;99.90;;;;;;5098252;27;20035;-53
2022/07/24 11:26:55;;;;;;;18.98;9.85;;;9.20;99.90;;;;;;5110711;28;20074;-52
2022/07/24 11:29:26;;;;;;;17.25;8.75;;;9.20;99.90;;;;;;5115047;27;20024;-57
2022/07/24 11:31:58;;;;;;;15.98;8.82;;;9.20;99.90;;;;;;5130818;27;20027;-53
2022/07/24 11:34:26;;;;;;;19.25;9.00;;;9.10;99.90;;;;;;5129555;27;20026;-55
2022/07/24 11:36:56;;;;;;;19.13;8.73;;;9.10;99.90;;;;;;5119700;27;20043;-51
2022/07/24 11:39:49;;;;;;;12.93;7.20;;;9.10;99.90;;;;;;5107934;27;20757;-50
2022/07/24 11:42:17;;;;;;;18.55;8.85;;;9.10;99.90;;;;;;5118945;27;20039;-50
2022/07/24 11:44:47;;;;;;;15.48;8.52;;;9.00;99.90;;;;;;5113875;27;20023;-51
2022/07/24 11:47:17;;;;;;;18.77;9.13;;;9.00;99.90;;;;;;5091804;28;20042;-55
2022/07/24 11:50:00;;;;;;;16.65;8.05;;;8.90;99.90;;;;;;5109956;28;20066;-53
2022/07/24 11:52:33;;;;;;;18.45;9.48;;;8.90;99.90;;;;;;5110445;28;20081;-55
2022/07/24 11:55:12;;;;;;;20.98;9.55;;;8.80;99.90;;;;;;5110190;28;20019;-51
2022/07/24 11:57:41;;;;;;;21.85;9.85;;;8.80;99.90;;;;;;5122293;27;20035;-55
2022/07/24 12:00:12;;;;;;;20.77;11.18;;;8.70;99.90;;;;;;5130449;27;20058;-52
2022/07/24 12:02:48;;;;;;;23.95;12.27;;;8.70;99.90;;;;;;5130625;27;20042;-52
2022/07/24 12:05:25;;;;;;;32.20;12.80;;;8.80;99.90;;;;;;5108407;28;20023;-50
2022/07/24 12:07:56;;;;;;;24.85;11.40;;;9.00;99.90;;;;;;5110164;28;20055;-55
2022/07/24 12:10:23;;;;;;;28.13;12.30;;;9.00;99.90;;;;;;5114156;27;20024;-57
2022/07/24 12:12:53;;;;;;;24.17;9.98;;;9.10;99.90;;;;;;5129850;27;20718;-56
2022/07/24 12:15:21;;;;;;;20.90;9.75;;;9.10;99.90;;;;;;5120370;27;20102;-53
2022/07/24 12:17:55;;;;;;;24.60;10.52;;;9.10;99.90;;;;;;5091492;28;20332;-56
2022/07/24 12:20:27;;;;;;;18.88;9.63;;;9.10;99.90;;;;;;5109999;28;20019;-53
2022/07/24 12:22:55;;;;;;;19.83;9.65;;;9.10;99.90;;;;;;5116761;27;20501;-54
2022/07/24 12:25:24;;;;;;;15.98;9.77;;;9.20;99.90;;;;;;5130111;27;20083;-52
2022/07/24 12:28:01;;;;;;;22.50;11.65;;;9.20;99.90;;;;;;5114913;27;20375;-50
2022/07/24 12:30:31;;;;;;;16.88;10.48;;;9.20;99.90;;;;;;5111545;27;20415;-54
2022/07/24 12:33:03;;;;;;;24.98;11.10;;;9.30;99.90;;;;;;5111935;28;20116;-55
2022/07/24 12:35:33;;;;;;;24.48;11.23;;;9.30;99.90;;;;;;5111364;27;20152;-51
2022/07/24 12:38:03;;;;;;;23.73;12.50;;;9.40;99.90;;;;;;5111746;28;20031;-53
2022/07/24 12:40:37;;;;;;;24.83;12.25;;;9.60;99.90;;;;;;5111645;27;20057;-51
2022/07/24 12:43:12;;;;;;;26.23;12.53;;;9.70;99.90;;;;;;5111616;28;20387;-52
2022/07/24 12:45:40;;;;;;;26.27;12.10;;;9.80;99.90;;;;;;5111767;28;20042;-51
2022/07/24 12:48:10;;;;;;;28.58;12.43;;;9.80;99.90;;;;;;5110819;28;20112;-54
2022/07/24 12:50:38;;;;;;;27.73;11.98;;;9.90;99.90;;;;;;5110455;28;20023;-51
2022/07/24 12:53:08;;;;;;;25.45;12.00;;;9.80;99.90;;;;;;5110981;28;20015;-52
2022/07/24 12:55:36;;;;;;;25.13;9.88;;;9.60;99.90;;;;;;5110975;28;20118;-52